createdAt,value
2022-09-28T00:00:53.620Z,97245.50
2022-09-28T00:03:58.181Z,97251.75
2022-09-28T00:07:00.138Z,97257.06
2022-09-28T00:10:01.668Z,97256.78
2022-09-28T00:13:03.253Z,97258.03
2022-09-28T00:16:05.779Z,97256.47
2022-09-28T00:19:08.314Z,97253.22
2022-09-28T00:22:09.887Z,97252.19
2022-09-28T00:25:11.443Z,97259.03
2022-09-28T00:28:12.973Z,97255.81
2022-09-28T00:31:14.699Z,97261.69
2022-09-28T00:34:16.449Z,97256.50
2022-09-28T00:37:21.617Z,97256.88
2022-09-28T00:40:23.148Z,97258.25
2022-09-28T00:43:25.114Z,97256.66
2022-09-28T00:46:31.453Z,97255.31
2022-09-28T00:49:40.434Z,97258.53
2022-09-28T00:52:48.598Z,97267.47
2022-09-28T00:55:57.101Z,97267.09
2022-09-28T00:58:59.668Z,97256.53
2022-09-28T01:02:01.741Z,97259.59
2022-09-28T01:05:04.178Z,97258.81
2022-09-28T01:08:06.181Z,97264.69
2022-09-28T01:11:07.808Z,97257.81
2022-09-28T01:14:10.651Z,97267.91
2022-09-28T01:17:16.310Z,97262.13
2022-09-28T01:20:27.327Z,97266.44
2022-09-28T01:23:47.970Z,97263.50
2022-09-28T01:26:56.439Z,97257.06
2022-09-28T01:30:01.706Z,97265.00
2022-09-28T01:33:10.886Z,97264.19
2022-09-28T01:36:14.185Z,97262.72
2022-09-28T01:39:16.992Z,97267.22
2022-09-28T01:42:22.661Z,97258.78
2022-09-28T01:45:26.266Z,97270.66
2022-09-28T01:48:38.297Z,97274.88
2022-09-28T01:51:42.625Z,97270.88
2022-09-28T01:54:50.265Z,97271.84
2022-09-28T01:57:53.245Z,97271.06
2022-09-28T02:00:57.365Z,97271.94
2022-09-28T02:04:07.925Z,97281.59
2022-09-28T02:07:17.352Z,97278.84
2022-09-28T02:10:19.848Z,97266.41
2022-09-28T02:13:30.502Z,97253.94
2022-09-28T02:16:45.248Z,97261.69
2022-09-28T02:19:46.906Z,97258.84
2022-09-28T02:22:49.631Z,97261.56
2022-09-28T02:25:52.633Z,97263.03
2022-09-28T02:28:55.546Z,97265.47
2022-09-28T02:31:57.144Z,97266.25
2022-09-28T02:34:59.439Z,97256.25
2022-09-28T02:38:01.096Z,97267.91
2022-09-28T02:41:08.387Z,97268.22
2022-09-28T02:44:19.300Z,97269.88
2022-09-28T02:47:28.315Z,97271.81
2022-09-28T02:50:33.327Z,97263.69
2022-09-28T02:53:53.761Z,97269.78
2022-09-28T02:56:55.433Z,97267.78
2022-09-28T03:00:08.259Z,97270.53
2022-09-28T03:03:18.998Z,97278.53
2022-09-28T03:06:30.745Z,97256.13
2022-09-28T03:09:34.001Z,97280.19
2022-09-28T03:12:36.421Z,97272.34
2022-09-28T03:15:38.077Z,97245.41
2022-09-28T03:18:39.961Z,97263.63
2022-09-28T03:21:42.027Z,97263.72
2022-09-28T03:24:43.804Z,97271.38
2022-09-28T03:27:45.986Z,97269.22
2022-09-28T03:30:49.693Z,97269.50
2022-09-28T03:33:51.557Z,97267.38
2022-09-28T03:36:53.216Z,97271.88
2022-09-28T03:39:54.930Z,97270.00
2022-09-28T03:42:57.441Z,97272.88
2022-09-28T03:46:00.969Z,97278.94
2022-09-28T03:49:04.249Z,97271.78
2022-09-28T03:52:06.109Z,97278.34
2022-09-28T03:55:07.891Z,97279.94
2022-09-28T03:58:09.517Z,97272.25
2022-09-28T04:01:16.601Z,97274.91
2022-09-28T04:04:20.238Z,97262.97
2022-09-28T04:07:21.809Z,97283.63
2022-09-28T04:10:23.927Z,97297.16
2022-09-28T04:13:26.904Z,97281.19
2022-09-28T04:16:28.599Z,97291.56
2022-09-28T04:19:38.702Z,97284.13
2022-09-28T04:23:10.502Z,97289.22
2022-09-28T04:26:19.690Z,97304.19
2022-09-28T04:29:22.328Z,97302.34
2022-09-28T04:32:29.203Z,97295.19
2022-09-28T04:35:30.753Z,97295.38
2022-09-28T04:38:51.908Z,97294.31
2022-09-28T04:41:54.943Z,97299.31
2022-09-28T04:44:58.048Z,97291.44
2022-09-28T04:47:59.772Z,97288.13
2022-09-28T04:51:17.846Z,97297.72
2022-09-28T04:54:19.481Z,97299.59
2022-09-28T04:57:21.053Z,97295.50
2022-09-28T05:00:22.613Z,97297.38
2022-09-28T05:03:40.306Z,97298.16
2022-09-28T05:07:00.911Z,97298.16
2022-09-28T05:10:02.508Z,97295.59
2022-09-28T05:13:07.262Z,97300.88
2022-09-28T05:16:09.497Z,97297.03
2022-09-28T05:19:26.275Z,97301.75
2022-09-28T05:22:32.703Z,97301.16
2022-09-28T05:25:34.296Z,97298.25
2022-09-28T05:28:52.238Z,97299.44
2022-09-28T05:32:19.265Z,97295.41
2022-09-28T05:36:01.555Z,97303.00
2022-09-28T05:39:04.591Z,97305.63
2022-09-28T05:42:07.986Z,97301.81
2022-09-28T05:45:10.294Z,97308.19
2022-09-28T05:48:14.021Z,97308.97
2022-09-28T05:51:15.861Z,97316.81
2022-09-28T05:54:17.700Z,97312.25
2022-09-28T05:57:21.456Z,97316.09
2022-09-28T06:00:23.613Z,97314.59
2022-09-28T06:03:28.680Z,97307.94
2022-09-28T06:06:30.304Z,97313.03
2022-09-28T06:09:31.945Z,97313.13
2022-09-28T06:12:36.351Z,97318.47
2022-09-28T06:15:42.897Z,97313.28
2022-09-28T06:18:46.413Z,97320.06
2022-09-28T06:22:13.881Z,97324.84
2022-09-28T06:25:29.546Z,97322.78
2022-09-28T06:28:31.638Z,97313.28
2022-09-28T06:31:33.360Z,97328.28
2022-09-28T06:34:35.276Z,97340.94
2022-09-28T06:37:36.917Z,97333.69
2022-09-28T06:40:38.995Z,97343.91
2022-09-28T06:43:41.145Z,97352.56
2022-09-28T06:47:01.280Z,97342.31
2022-09-28T06:50:39.778Z,97349.38
2022-09-28T06:54:01.284Z,97362.81
2022-09-28T06:57:14.060Z,97352.72
2022-09-28T07:00:16.775Z,97355.88
2022-09-28T07:03:21.742Z,97366.38
2022-09-28T07:06:32.163Z,97365.19
2022-09-28T07:09:55.631Z,97371.00
2022-09-28T07:13:42.655Z,97379.34
2022-09-28T07:17:09.464Z,97376.72
2022-09-28T07:20:17.295Z,97379.66
2022-09-28T07:23:20.971Z,97384.06
2022-09-28T07:26:41.094Z,97385.34
2022-09-28T07:29:54.705Z,97378.81
2022-09-28T07:33:17.200Z,97389.16
2022-09-28T07:36:23.929Z,97393.19
2022-09-28T07:39:27.304Z,97384.34
2022-09-28T07:42:30.358Z,97384.34
2022-09-28T07:45:36.744Z,97388.28
2022-09-28T07:48:41.949Z,97389.16
2022-09-28T07:51:53.225Z,97388.97
2022-09-28T07:55:07.247Z,97392.53
2022-09-28T07:58:36.322Z,97396.88
2022-09-28T08:01:56.249Z,97394.41
2022-09-28T08:04:59.960Z,97388.50
2022-09-28T08:08:02.134Z,97401.34
2022-09-28T08:11:06.352Z,97399.19
2022-09-28T08:14:40.349Z,97395.81
2022-09-28T08:18:05.514Z,97400.03
2022-09-28T08:21:25.964Z,97401.22
2022-09-28T08:24:31.054Z,97398.03
2022-09-28T08:27:33.259Z,97393.38
2022-09-28T08:30:35.303Z,97402.31
2022-09-28T08:33:55.794Z,97392.56
2022-09-28T08:37:26.557Z,97410.38
2022-09-28T08:41:12.225Z,97408.09
2022-09-28T08:44:45.601Z,97402.31
2022-09-28T08:48:29.085Z,97407.44
2022-09-28T08:52:08.250Z,97396.09
2022-09-28T08:55:32.769Z,97406.03
2022-09-28T08:58:36.309Z,97393.38
2022-09-28T09:01:39.315Z,97400.03
2022-09-28T09:04:45.421Z,97413.09
2022-09-28T09:08:14.388Z,97408.84
2022-09-28T09:11:25.621Z,97399.09
2022-09-28T09:14:44.009Z,97399.16
2022-09-28T09:17:52.680Z,97400.28
2022-09-28T09:21:02.353Z,97396.34
2022-09-28T09:24:41.629Z,97396.50
2022-09-28T09:27:46.690Z,97408.16
2022-09-28T09:30:51.707Z,97396.13
2022-09-28T09:34:13.133Z,97391.56
2022-09-28T09:37:58.632Z,97389.53
2022-09-28T09:41:28.063Z,97371.81
2022-09-28T09:44:52.372Z,97400.19
2022-09-28T09:48:27.562Z,97393.44
2022-09-28T09:51:35.440Z,97391.09
2022-09-28T09:54:56.134Z,97381.38
2022-09-28T09:58:14.829Z,97382.47
2022-09-28T10:01:20.256Z,97381.78
2022-09-28T10:04:41.393Z,97379.19
2022-09-28T10:07:52.082Z,97377.38
2022-09-28T10:11:02.942Z,97377.75
2022-09-28T10:14:08.283Z,97372.88
2022-09-28T10:17:13.930Z,97360.78
2022-09-28T10:20:35.028Z,97359.81
2022-09-28T10:23:50.476Z,97359.78
2022-09-28T10:26:53.281Z,97361.47
2022-09-28T10:30:02.589Z,97365.53
2022-09-28T10:33:04.288Z,97363.44
2022-09-28T10:36:09.365Z,97366.34
2022-09-28T10:39:24.424Z,97367.97
2022-09-28T10:42:26.793Z,97367.78
2022-09-28T10:45:28.429Z,97353.53
2022-09-28T10:48:31.237Z,97371.97
2022-09-28T10:51:41.981Z,97368.78
2022-09-28T10:54:52.775Z,97365.78
2022-09-28T10:57:55.745Z,97348.97
2022-09-28T11:00:59.972Z,97350.53
2022-09-28T11:04:03.801Z,97356.28
2022-09-28T11:07:05.398Z,97348.97
2022-09-28T11:10:16.619Z,97348.97
2022-09-28T11:13:18.272Z,97355.47
2022-09-28T11:16:31.121Z,97350.44
2022-09-28T11:19:34.654Z,97357.03
2022-09-28T11:22:41.987Z,97358.25
2022-09-28T11:25:52.077Z,97355.38
2022-09-28T11:28:53.733Z,97345.38
2022-09-28T11:32:05.770Z,97345.41
2022-09-28T11:35:19.813Z,97362.06
2022-09-28T11:38:28.363Z,97362.59
2022-09-28T11:42:10.960Z,97364.59
2022-09-28T11:45:46.459Z,97369.81
2022-09-28T11:48:49.947Z,97366.06
2022-09-28T11:51:51.504Z,97365.59
2022-09-28T11:55:06.765Z,97358.16
2022-09-28T11:58:11.303Z,97363.38
2022-09-28T12:01:35.606Z,97364.41
2022-09-28T12:04:59.431Z,97361.50
2022-09-28T12:08:04.259Z,97362.38
2022-09-28T12:11:44.643Z,97354.19
2022-09-28T12:14:53.503Z,97354.84
2022-09-28T12:17:56.548Z,97348.63
2022-09-28T12:21:08.962Z,97334.56
2022-09-28T12:24:49.145Z,97334.06
2022-09-28T12:27:53.325Z,97342.13
2022-09-28T12:30:54.949Z,97331.59
2022-09-28T12:33:56.541Z,97321.81
2022-09-28T12:37:00.900Z,97325.91
2022-09-28T12:40:02.871Z,97321.69
2022-09-28T12:43:10.774Z,97324.81
2022-09-28T12:46:34.804Z,97329.34
2022-09-28T12:53:35.348Z,97310.53
2022-09-28T12:56:45.958Z,97309.44
2022-09-28T12:59:53.034Z,97309.78
2022-09-28T13:03:13.436Z,97309.19
2022-09-28T13:06:30.126Z,97313.81
2022-09-28T13:09:41.750Z,97310.81
2022-09-28T13:12:46.121Z,97324.81
2022-09-28T13:15:53.809Z,97310.75
2022-09-28T13:18:55.414Z,97315.09
2022-09-28T13:22:00.290Z,97318.22
2022-09-28T13:25:07.453Z,97311.47
2022-09-28T13:28:09.543Z,97307.78
2022-09-28T13:31:11.165Z,97316.44
2022-09-28T13:34:22.177Z,97302.00
2022-09-28T13:37:24.846Z,97304.50
2022-09-28T13:40:46.371Z,97308.81
2022-09-28T13:43:51.332Z,97315.44
2022-09-28T13:47:11.741Z,97320.13
2022-09-28T13:50:27.083Z,97313.38
2022-09-28T13:53:39.470Z,97312.84
2022-09-28T13:56:50.338Z,97304.88
2022-09-28T13:59:51.936Z,97306.91
2022-09-28T14:02:53.550Z,97313.28
2022-09-28T14:06:09.711Z,97305.28
2022-09-28T14:09:14.098Z,97310.34
2022-09-28T14:12:30.170Z,97297.31
2022-09-28T14:15:31.828Z,97288.69
2022-09-28T14:18:33.608Z,97289.63
2022-09-28T14:21:38.197Z,97282.09
2022-09-28T14:24:39.745Z,97283.47
2022-09-28T14:27:47.529Z,97285.69
2022-09-28T14:30:53.569Z,97272.84
2022-09-28T14:33:59.414Z,97285.91
2022-09-28T14:37:20.494Z,97278.41
2022-09-28T14:40:49.903Z,97274.06
2022-09-28T14:43:59.258Z,97267.53
2022-09-28T14:47:21.826Z,97271.28
2022-09-28T14:50:27.182Z,97266.72
2022-09-28T14:53:28.884Z,97264.84
2022-09-28T14:56:38.750Z,97261.88
2022-09-28T14:59:42.852Z,97265.47
2022-09-28T15:02:46.187Z,97272.22
2022-09-28T15:05:48.240Z,97281.78
2022-09-28T15:08:49.891Z,97256.09
2022-09-28T15:11:55.485Z,97258.16
2022-09-28T15:14:57.059Z,97264.41
2022-09-28T15:18:04.757Z,97258.44
2022-09-28T15:21:06.377Z,97249.53
2022-09-28T15:24:43.166Z,97264.56
2022-09-28T15:27:44.689Z,97251.56
2022-09-28T15:30:46.241Z,97236.72
2022-09-28T15:34:06.081Z,97239.38
2022-09-28T15:37:11.537Z,97237.94
2022-09-28T15:40:13.999Z,97232.50
2022-09-28T15:43:24.144Z,97229.69
2022-09-28T15:46:30.030Z,97231.53
2022-09-28T15:49:39.029Z,97194.00
2022-09-28T15:52:44.692Z,97220.88
2022-09-28T15:55:47.143Z,97223.88
2022-09-28T15:59:07.415Z,97217.94
2022-09-28T16:02:13.123Z,97201.03
2022-09-28T16:05:40.965Z,97213.38
2022-09-28T16:08:43.204Z,97204.47
2022-09-28T16:11:44.734Z,97202.13
2022-09-28T16:14:47.977Z,97199.63
2022-09-28T16:17:50.357Z,97178.00
2022-09-28T16:20:52.761Z,97180.50
2022-09-28T16:23:56.072Z,97177.69
2022-09-28T16:27:01.065Z,97180.69
2022-09-28T16:30:04.810Z,97193.66
2022-09-28T16:33:08.595Z,97191.28
2022-09-28T16:36:14.792Z,97189.41
2022-09-28T16:39:17.089Z,97193.63
2022-09-28T16:42:18.730Z,97182.06
2022-09-28T16:45:21.069Z,97150.78
2022-09-28T16:48:23.358Z,97192.97
2022-09-28T16:51:24.885Z,97183.88
2022-09-28T16:54:44.753Z,97170.56
2022-09-28T16:57:50.461Z,97181.19
2022-09-28T17:00:54.062Z,97195.59
2022-09-28T17:03:55.626Z,97168.25
2022-09-28T17:06:58.366Z,97181.09
2022-09-28T17:10:00.036Z,97166.09
2022-09-28T17:13:01.682Z,97177.94
2022-09-28T17:16:06.276Z,97174.34
2022-09-28T17:19:18.446Z,97174.53
2022-09-28T17:22:20.089Z,97171.41
2022-09-28T17:25:24.900Z,97172.03
2022-09-28T17:28:27.573Z,97159.19
2022-09-28T17:31:29.441Z,97169.69
2022-09-28T17:34:31.197Z,97175.03
2022-09-28T17:37:36.148Z,97166.44
2022-09-28T17:40:37.764Z,97166.59
2022-09-28T17:43:41.323Z,97168.19
2022-09-28T17:46:47.379Z,97158.63
2022-09-28T17:49:54.134Z,97171.88
2022-09-28T17:52:57.702Z,97173.59
2022-09-28T17:55:59.261Z,97170.00
2022-09-28T17:59:01.673Z,97170.50
2022-09-28T18:02:03.434Z,97155.94
2022-09-28T18:05:05.196Z,97165.94
2022-09-28T18:08:06.790Z,97157.81
2022-09-28T18:11:08.309Z,97176.09
2022-09-28T18:14:11.310Z,97163.28
2022-09-28T18:17:13.116Z,97164.38
2022-09-28T18:20:14.717Z,97155.31
2022-09-28T18:23:16.279Z,97157.03
2022-09-28T18:26:19.618Z,97157.50
2022-09-28T18:29:21.193Z,97145.47
2022-09-28T18:32:23.091Z,97145.94
2022-09-28T18:35:24.689Z,97155.34
2022-09-28T18:38:27.030Z,97155.34
2022-09-28T18:41:29.344Z,97153.31
2022-09-28T18:44:30.954Z,97153.44
2022-09-28T18:47:33.163Z,97149.06
2022-09-28T18:50:35.218Z,97159.41
2022-09-28T18:53:37.145Z,97147.66
2022-09-28T18:56:38.737Z,97139.22
2022-09-28T18:59:40.299Z,97145.34
2022-09-28T19:02:42.103Z,97149.09
2022-09-28T19:05:44.038Z,97155.34
2022-09-28T19:08:46.283Z,97146.25
2022-09-28T19:11:48.342Z,97147.94
2022-09-28T19:14:50.038Z,97148.88
2022-09-28T19:17:51.671Z,97152.47
2022-09-28T19:20:53.217Z,97148.41
2022-09-28T19:23:55.601Z,97152.63
2022-09-28T19:26:57.556Z,97158.72
2022-09-28T19:29:59.050Z,97161.69
2022-09-28T19:33:00.539Z,97165.44
2022-09-28T19:36:03.074Z,97165.72
2022-09-28T19:39:05.151Z,97177.00
2022-09-28T19:42:06.705Z,97176.19
2022-09-28T19:45:08.690Z,97166.50
2022-09-28T19:48:10.191Z,97166.34
2022-09-28T19:51:11.882Z,97175.91
2022-09-28T19:54:13.723Z,97166.97
2022-09-28T19:57:15.972Z,97176.31
2022-09-28T20:00:17.798Z,97176.47
2022-09-28T20:03:19.573Z,97173.19
2022-09-28T20:06:21.283Z,97177.22
2022-09-28T20:09:22.803Z,97181.91
2022-09-28T20:12:24.384Z,97185.19
2022-09-28T20:15:25.902Z,97187.22
2022-09-28T20:18:27.514Z,97191.44
2022-09-28T20:21:29.825Z,97192.03
2022-09-28T20:24:31.613Z,97194.09
2022-09-28T20:27:33.305Z,97192.22
2022-09-28T20:30:34.862Z,97192.34
2022-09-28T20:33:36.428Z,97200.63
2022-09-28T20:36:37.982Z,97202.63
2022-09-28T20:39:42.792Z,97203.59
2022-09-28T20:42:46.658Z,97205.66
2022-09-28T20:45:48.214Z,97214.97
2022-09-28T20:48:50.335Z,97211.53
2022-09-28T20:51:51.907Z,97213.44
2022-09-28T20:54:53.458Z,97228.94
2022-09-28T20:57:55.054Z,97236.84
2022-09-28T21:01:17.320Z,97233.72
2022-09-28T21:04:19.645Z,97234.81
2022-09-28T21:07:21.429Z,97243.25
2022-09-28T21:10:22.985Z,97249.06
2022-09-28T21:13:24.971Z,97251.75
2022-09-28T21:16:27.285Z,97245.31
2022-09-28T21:19:29.510Z,97241.84
2022-09-28T21:22:31.071Z,97256.41
2022-09-28T21:25:32.623Z,97264.59
2022-09-28T21:28:34.945Z,97269.28
2022-09-28T21:31:40.579Z,97263.81
2022-09-28T21:34:42.143Z,97273.38
2022-09-28T21:37:43.689Z,97272.16
2022-09-28T21:40:45.371Z,97272.00
2022-09-28T21:43:46.981Z,97273.06
2022-09-28T21:46:48.873Z,97281.25
2022-09-28T21:49:50.498Z,97286.72
2022-09-28T21:52:52.849Z,97280.78
2022-09-28T21:55:54.917Z,97288.94
2022-09-28T21:58:56.494Z,97289.06
2022-09-28T22:01:58.148Z,97303.31
2022-09-28T22:04:59.700Z,97292.50
2022-09-28T22:08:01.374Z,97299.84
2022-09-28T22:11:07.231Z,97307.84
2022-09-28T22:14:10.879Z,97308.94
2022-09-28T22:17:12.454Z,97315.38
2022-09-28T22:20:14.051Z,97318.69
2022-09-28T22:23:15.587Z,97325.75
2022-09-28T22:26:20.175Z,97334.38
2022-09-28T22:29:21.715Z,97330.13
2022-09-28T22:32:23.872Z,97330.91
2022-09-28T22:35:25.414Z,97337.00
2022-09-28T22:38:28.137Z,97331.84
2022-09-28T22:41:29.983Z,97332.94
2022-09-28T22:44:31.659Z,97327.28
2022-09-28T22:47:33.294Z,97341.25
2022-09-28T22:50:34.877Z,97341.25
2022-09-28T22:53:36.466Z,97343.59
2022-09-28T22:56:37.998Z,97348.91
2022-09-28T22:59:39.569Z,97355.81
2022-09-28T23:02:41.404Z,97350.03
2022-09-28T23:05:51.330Z,97353.28
2022-09-28T23:08:53.234Z,97353.94
2022-09-28T23:11:54.910Z,97355.31
2022-09-28T23:14:56.497Z,97358.75
2022-09-28T23:17:57.995Z,97355.91
2022-09-28T23:21:00.550Z,97360.16
2022-09-28T23:24:02.229Z,97354.19
2022-09-28T23:27:03.861Z,97360.03
2022-09-28T23:30:05.601Z,97358.94
2022-09-28T23:33:07.280Z,97355.19
2022-09-28T23:36:08.901Z,97373.84
2022-09-28T23:39:11.739Z,97371.16
2022-09-28T23:42:13.298Z,97368.34
2022-09-28T23:45:14.914Z,97369.78
2022-09-28T23:48:16.484Z,97374.00
2022-09-28T23:51:18.228Z,97373.53
2022-09-28T23:54:19.742Z,97377.28
2022-09-28T23:57:21.325Z,97367.13
